FR-0236 weather

Magland Heliport
Magland, Auvergne-Rhône-Alpes, France

Public forecast

Using degrees Celsius for public forecast. Weather courtesy of forecast.io.

Closest aviation weather report (METAR) to Magland Heliport

Closest report is Annecy-Haute-Savoie-Mont Blanc Airport, 25.7 nm (47.5 km) W. Retrieved 2020/01/29 14:30 UTC (0 seconds ago):

LFLP 291430Z AUTO 10003KT 8000 -RA BKN024 OVC031 05/04 Q1019 TEMPO RA BKN014 SCT020TCU

Closest aviation forecast (TAF) to Magland Heliport

Closest forecast is Annecy-Haute-Savoie-Mont Blanc Airport, 25.7 nm (47.5 km) W. Retrieved 2020/01/29 15:00 UTC (0 seconds ago):

TAF LFLP 291400Z 2915/3015 22005KT 9999 BKN025 OVC030 TEMPO 2915/2918 -RA PROB40 TEMPO 2915/2918 BKN014 BECMG 2919/2921 VRB02KT BECMG 2921/2923 CAVOK PROB40 TEMPO 3000/3009 4000 BR PROB30 TEMPO 3002/3009 0600 FG VV/// BECMG 3013/3015 5000 RA SCT035 OVC040